Time;durP1;ratioP1;P1;durP2;ratioP2;P2;SDS_P1;SDS_P2;PMS_P1;PMS_P2;Temp;Humidity;BMP_temperature;BMP_pressure;BME280_temperature;BME280_humidity;BME280_pressure;Samples;Min_cycle;Max_cycle;Signal;HPM_P1;HPM_P2
2022/05/05 00:00:54;;;;;;;27.88;12.80;;;;;;;8.60;100.00;101987.81;5205618;28;20542;-70
2022/05/05 00:03:24;;;;;;;28.45;13.95;;;;;;;8.54;100.00;101984.66;5205896;28;20029;-70
2022/05/05 00:05:54;;;;;;;34.95;13.82;;;;;;;8.52;100.00;101983.91;5205495;28;20029;-70
2022/05/05 00:08:25;;;;;;;31.83;13.45;;;;;;;8.50;100.00;101980.53;5205714;28;20486;-70
2022/05/05 00:16:33;;;;;;;35.70;13.95;;;;;;;8.57;100.00;101978.19;5200818;28;20025;-70
2022/05/05 00:19:04;;;;;;;30.63;13.55;;;;;;;8.59;100.00;101978.94;5206135;28;20030;-70
2022/05/05 00:21:35;;;;;;;38.90;15.30;;;;;;;8.59;100.00;101978.94;5204889;28;20032;-70
2022/05/05 00:24:06;;;;;;;31.25;14.07;;;;;;;8.58;100.00;101974.53;5205445;28;20033;-70
2022/05/05 00:26:36;;;;;;;31.23;14.30;;;;;;;8.55;100.00;101978.31;5205046;28;20034;-70
2022/05/05 00:29:07;;;;;;;33.65;14.43;;;;;;;8.52;100.00;101975.03;5205667;28;20025;-69
2022/05/05 00:31:38;;;;;;;31.42;13.07;;;;;;;8.50;100.00;101979.69;5205197;28;20056;-69
2022/05/05 00:34:08;;;;;;;28.48;12.50;;;;;;;8.47;100.00;101975.41;5204805;28;20080;-70
2022/05/05 00:36:39;;;;;;;32.85;14.02;;;;;;;8.47;100.00;101975.41;5197623;28;20036;-70
2022/05/05 00:39:11;;;;;;;30.02;13.80;;;;;;;8.46;100.00;101973.72;5186968;28;20026;-70
2022/05/05 00:41:44;;;;;;;32.70;13.82;;;;;;;8.43;100.00;101971.28;5205178;28;20087;-70
2022/05/05 00:44:15;;;;;;;28.60;14.45;;;;;;;8.39;100.00;101969.88;5204365;28;20083;-69
2022/05/05 00:46:47;;;;;;;33.58;14.15;;;;;;;8.37;100.00;101969.13;5205032;28;20033;-69
2022/05/05 00:49:19;;;;;;;28.02;13.07;;;;;;;8.37;100.00;101970.94;5204842;28;20483;-69
2022/05/05 00:51:49;;;;;;;32.35;14.65;;;;;;;8.35;100.00;101971.03;5204865;28;20032;-69
2022/05/05 00:54:20;;;;;;;34.50;14.13;;;;;;;8.37;100.00;101968.28;5204521;28;20029;-70
2022/05/05 00:56:51;;;;;;;33.65;14.13;;;;;;;8.37;100.00;101976.28;5204854;28;20451;-69
2022/05/05 00:59:22;;;;;;;32.63;13.73;;;;;;;8.33;100.00;101970.31;5204382;28;20032;-69
2022/05/05 01:01:53;;;;;;;36.30;14.50;;;;;;;8.32;100.00;101971.28;5204878;28;20025;-69
2022/05/05 01:04:25;;;;;;;36.90;15.88;;;;;;;8.32;100.00;101973.97;5205151;28;20152;-69
2022/05/05 01:06:56;;;;;;;36.55;13.05;;;;;;;8.33;100.00;101975.66;5204923;28;20075;-69
2022/05/05 01:09:36;;;;;;;36.22;15.15;;;;;;;8.33;100.00;101981.00;5205119;28;20104;-69
2022/05/05 01:12:08;;;;;;;38.08;15.73;;;;;;;8.30;100.00;101975.91;5204503;28;20036;-69
2022/05/05 01:14:39;;;;;;;34.03;15.65;;;;;;;8.29;100.00;101972.41;5204223;28;20530;-69
2022/05/05 01:17:10;;;;;;;35.47;16.70;;;;;;;8.31;100.00;101975.78;5204340;28;20028;-69
2022/05/05 01:19:40;;;;;;;34.20;16.05;;;;;;;8.33;100.00;101981.00;5204094;28;20535;-69
2022/05/05 01:22:11;;;;;;;35.03;14.88;;;;;;;8.30;100.00;101974.09;5204432;28;20021;-69
2022/05/05 01:30:19;;;;;;;35.38;14.65;;;;;;;8.42;100.00;101976.75;5191834;28;20025;-70
2022/05/05 01:32:49;;;;;;;34.22;15.07;;;;;;;8.49;100.00;101973.47;5204386;28;20156;-70
2022/05/05 01:35:20;;;;;;;36.38;15.10;;;;;;;8.60;100.00;101980.63;5204187;28;20028;-70
2022/05/05 01:37:50;;;;;;;32.72;14.77;;;;;;;8.69;100.00;101989.72;5197585;28;20026;-70
2022/05/05 01:40:22;;;;;;;31.60;13.75;;;;;;;8.77;100.00;101984.56;5195124;28;20025;-70
2022/05/05 01:42:52;;;;;;;29.30;14.02;;;;;;;8.83;100.00;101986.75;5203900;28;20403;-70
2022/05/05 01:45:23;;;;;;;33.97;14.75;;;;;;;8.88;100.00;101981.00;5204008;28;20018;-70
2022/05/05 01:47:54;;;;;;;29.45;15.15;;;;;;;8.93;100.00;101985.00;5203920;28;20541;-70
2022/05/05 01:50:25;;;;;;;34.45;14.27;;;;;;;8.98;100.00;101982.78;5204189;28;20108;-70
2022/05/05 01:53:04;;;;;;;30.98;14.63;;;;;;;9.06;100.00;101979.47;5203697;28;20084;-70
2022/05/05 01:55:38;;;;;;;32.10;14.90;;;;;;;9.13;100.00;101982.47;5203789;28;20032;-70
2022/05/05 01:58:09;;;;;;;28.83;14.20;;;;;;;9.20;100.00;101986.34;5203996;28;20017;-70
2022/05/05 02:00:40;;;;;;;35.35;15.57;;;;;;;9.22;100.00;101982.56;5203826;28;20017;-72
2022/05/05 02:05:57;;;;;;;27.30;14.07;;;;;;;9.28;100.00;101983.84;5203571;28;20079;-71
2022/05/05 02:08:27;;;;;;;33.30;14.55;;;;;;;9.30;100.00;101988.13;5204002;28;20455;-71
2022/05/05 02:10:57;;;;;;;34.45;14.95;;;;;;;9.30;100.00;101979.25;5203254;28;20037;-71
2022/05/05 02:13:28;;;;;;;40.50;15.90;;;;;;;9.31;100.00;101979.09;5203725;28;20390;-70
2022/05/05 02:15:59;;;;;;;32.90;14.45;;;;;;;9.30;100.00;101984.59;5203069;28;20053;-71
2022/05/05 02:18:31;;;;;;;28.10;14.95;;;;;;;9.30;100.00;101987.28;5203762;28;20372;-70
2022/05/05 02:21:01;;;;;;;30.40;14.20;;;;;;;9.30;100.00;101988.13;5204027;28;20025;-70
2022/05/05 02:23:32;;;;;;;30.35;15.68;;;;;;;9.33;100.00;101989.69;5203886;28;20434;-70
2022/05/05 02:26:02;;;;;;;30.95;14.27;;;;;;;9.33;100.00;101981.63;5203645;28;20097;-70
2022/05/05 02:28:33;;;;;;;27.02;14.05;;;;;;;9.33;100.00;101989.69;5203211;28;20398;-70
2022/05/05 02:31:03;;;;;;;30.98;14.32;;;;;;;9.29;100.00;101983.75;5203677;28;20029;-70
2022/05/05 02:33:34;;;;;;;30.67;14.20;;;;;;;9.28;100.00;101982.03;5203653;28;20060;-70
2022/05/05 02:38:55;;;;;;;30.65;14.40;;;;;;;9.26;100.00;101988.50;5189216;28;20022;-69
2022/05/05 02:41:25;;;;;;;31.70;14.32;;;;;;;9.26;100.00;101986.69;5203220;28;20029;-69
2022/05/05 02:43:56;;;;;;;30.42;14.60;;;;;;;9.27;100.00;101988.38;5203662;28;20071;-70
2022/05/05 02:46:26;;;;;;;30.17;14.35;;;;;;;9.27;100.00;101983.00;5203372;28;20068;-69
2022/05/05 02:48:57;;;;;;;41.70;14.48;;;;;;;9.27;100.00;101979.50;5203381;28;20370;-70
2022/05/05 02:51:27;;;;;;;33.58;15.60;;;;;;;9.25;100.00;101986.81;5203207;28;20466;-70
2022/05/05 02:56:47;;;;;;;36.33;14.52;;;;;;;9.26;100.00;101980.47;5203970;28;20494;-70
2022/05/05 02:59:17;;;;;;;27.75;14.48;;;;;;;9.27;100.00;101985.69;5203862;28;20061;-71
2022/05/05 03:01:48;;;;;;;32.47;14.57;;;;;;;9.29;100.00;101983.75;5202849;28;20036;-70
2022/05/05 03:04:18;;;;;;;34.08;15.25;;;;;;;9.30;100.00;101982.75;5203109;28;20064;-70
2022/05/05 03:06:49;;;;;;;28.65;14.07;;;;;;;9.37;100.00;101991.13;5203442;28;20493;-70
2022/05/05 03:09:19;;;;;;;34.05;13.95;;;;;;;9.41;100.00;101992.56;5203345;28;20386;-70
2022/05/05 03:11:50;;;;;;;33.45;15.07;;;;;;;9.46;100.00;101994.84;5203284;28;20510;-69
2022/05/05 03:14:20;;;;;;;32.97;15.10;;;;;;;9.45;100.00;101994.00;5202605;28;20109;-69
2022/05/05 03:16:51;;;;;;;35.08;15.50;;;;;;;9.44;100.00;101992.31;5203225;28;20029;-69
2022/05/05 03:19:21;;;;;;;30.10;14.02;;;;;;;9.42;100.00;101986.22;5203434;28;20022;-69
2022/05/05 03:21:53;;;;;;;33.58;15.20;;;;;;;9.36;100.00;101983.22;5203321;28;20100;-70
2022/05/05 03:24:23;;;;;;;36.33;16.23;;;;;;;9.35;100.00;101982.38;5206554;28;20055;-70
2022/05/05 03:26:54;;;;;;;34.92;16.73;;;;;;;9.37;100.00;101982.25;5206860;28;20487;-69
2022/05/05 03:29:24;;;;;;;32.38;16.25;;;;;;;9.36;100.00;101989.44;5207082;28;20033;-69
2022/05/05 03:31:55;;;;;;;38.47;15.40;;;;;;;9.37;100.00;101988.44;5206882;28;20065;-70
2022/05/05 03:34:26;;;;;;;33.50;15.80;;;;;;;9.38;100.00;101990.13;5206305;28;20053;-70
2022/05/05 03:36:56;;;;;;;34.28;15.68;;;;;;;9.41;100.00;101986.34;5206691;28;20021;-70
2022/05/05 03:39:27;;;;;;;28.08;14.35;;;;;;;9.42;100.00;101996.94;5191865;28;20026;-70
2022/05/05 03:41:57;;;;;;;34.17;16.83;;;;;;;9.39;100.00;102002.56;5206537;28;20024;-69
2022/05/05 03:44:28;;;;;;;31.75;14.48;;;;;;;9.36;100.00;101989.44;5206171;28;20022;-69
2022/05/05 03:46:59;;;;;;;35.55;16.75;;;;;;;9.37;100.00;101993.78;5206356;28;20471;-69
2022/05/05 03:49:29;;;;;;;41.90;15.43;;;;;;;9.36;100.00;101992.09;5206323;28;20398;-69
2022/05/05 03:52:00;;;;;;;29.23;14.98;;;;;;;9.39;100.00;101991.84;5205994;28;20033;-69
2022/05/05 03:54:31;;;;;;;30.48;14.45;;;;;;;9.40;100.00;101998.06;5206125;28;20029;-69
2022/05/05 03:57:01;;;;;;;31.90;14.73;;;;;;;9.36;100.00;101992.09;5206560;28;20109;-69
2022/05/05 03:59:32;;;;;;;33.50;15.07;;;;;;;9.33;100.00;101995.88;5206175;28;20025;-68
2022/05/05 04:02:03;;;;;;;35.63;14.38;;;;;;;9.32;100.00;101998.69;5206304;28;20468;-68
2022/05/05 04:04:33;;;;;;;35.10;15.95;;;;;;;9.31;100.00;102000.53;5205550;28;20075;-68
2022/05/05 04:07:04;;;;;;;34.42;15.30;;;;;;;9.32;100.00;102004.91;5205968;28;20371;-68
2022/05/05 04:09:34;;;;;;;38.13;16.05;;;;;;;9.34;100.00;102007.47;5206031;28;20021;-68
2022/05/05 04:12:06;;;;;;;36.85;16.35;;;;;;;9.36;100.00;102010.00;5206080;28;20017;-68
2022/05/05 04:14:36;;;;;;;33.80;14.23;;;;;;;9.40;100.00;102011.44;5205060;28;20029;-69
2022/05/05 04:17:07;;;;;;;38.40;16.40;;;;;;;9.40;100.00;102011.44;5205449;28;20025;-69
2022/05/05 04:19:39;;;;;;;33.35;14.82;;;;;;;9.43;100.00;102013.84;5205602;28;20025;-70
2022/05/05 04:22:09;;;;;;;30.27;15.45;;;;;;;9.42;100.00;102010.31;5205773;28;20076;-70
2022/05/05 04:24:40;;;;;;;35.42;16.40;;;;;;;9.46;100.00;102022.47;5205831;28;20029;-69
2022/05/05 04:27:10;;;;;;;34.78;15.55;;;;;;;9.46;100.00;102018.97;5205662;28;20025;-69
2022/05/05 04:29:40;;;;;;;31.67;15.38;;;;;;;9.43;100.00;102017.38;5205337;28;20116;-70
2022/05/05 04:32:11;;;;;;;38.33;15.63;;;;;;;9.44;100.00;102016.41;5205543;28;20025;-70
2022/05/05 04:34:42;;;;;;;32.95;14.68;;;;;;;9.42;100.00;102018.34;5204421;28;20052;-70
2022/05/05 04:37:12;;;;;;;29.27;14.65;;;;;;;9.42;100.00;102026.41;5204469;28;20029;-70
2022/05/05 04:39:43;;;;;;;35.35;16.55;;;;;;;9.45;100.00;102027.97;5204049;28;20387;-70
2022/05/05 04:42:13;;;;;;;41.22;16.73;;;;;;;9.46;100.00;102022.47;5205334;28;20025;-69
2022/05/05 04:44:44;;;;;;;36.00;16.77;;;;;;;9.51;100.00;102019.41;5203925;28;20040;-70
2022/05/05 04:47:14;;;;;;;34.83;16.15;;;;;;;9.56;100.00;102020.72;5205252;28;20030;-69
2022/05/05 04:49:45;;;;;;;32.67;15.63;;;;;;;9.62;100.00;102026.53;5205691;28;20471;-70
2022/05/05 04:52:15;;;;;;;34.47;16.45;;;;;;;9.67;100.00;102027.00;5204658;28;20534;-69
2022/05/05 04:54:45;;;;;;;32.53;15.50;;;;;;;9.70;100.00;102035.63;5204831;28;20475;-70
2022/05/05 04:57:16;;;;;;;35.90;15.82;;;;;;;9.79;100.00;102036.66;5205077;28;20495;-70
2022/05/05 04:59:46;;;;;;;31.88;14.82;;;;;;;9.84;100.00;102037.97;5205007;28;20025;-69
2022/05/05 05:02:17;;;;;;;27.33;14.05;;;;;;;9.86;100.00;102036.00;5203604;28;20463;-69
2022/05/05 05:04:47;;;;;;;35.03;17.58;;;;;;;9.86;100.00;102032.47;5204332;28;20116;-69
2022/05/05 05:07:18;;;;;;;37.17;15.00;;;;;;;9.88;100.00;102037.69;5204717;28;20056;-72
2022/05/05 05:09:49;;;;;;;34.40;16.13;;;;;;;9.87;100.00;102044.88;5204787;28;20034;-70
2022/05/05 05:12:19;;;;;;;37.83;15.90;;;;;;;9.94;100.00;102046.06;5205042;28;20104;-70
2022/05/05 05:14:49;;;;;;;40.95;16.15;;;;;;;9.98;100.00;102043.94;5204013;28;20044;-70
2022/05/05 05:17:20;;;;;;;37.90;17.23;;;;;;;10.02;100.00;102045.38;5204412;28;20471;-70
2022/05/05 05:19:50;;;;;;;34.40;16.52;;;;;;;10.03;100.00;102045.25;5204650;28;20742;-70
2022/05/05 05:22:22;;;;;;;41.05;17.75;;;;;;;10.04;100.00;102048.75;5204755;28;20048;-70
2022/05/05 05:24:52;;;;;;;35.30;15.57;;;;;;;10.05;100.00;102054.00;5204142;28;20029;-70
2022/05/05 05:27:23;;;;;;;37.30;16.38;;;;;;;10.08;100.00;102056.41;5204501;28;20183;-69
2022/05/05 05:29:54;;;;;;;36.03;15.60;;;;;;;10.06;100.00;102057.53;5203871;28;20052;-69
2022/05/05 05:32:24;;;;;;;34.53;17.83;;;;;;;10.05;100.00;102062.06;5204529;28;20529;-69
2022/05/05 05:34:55;;;;;;;41.60;17.58;;;;;;;10.03;100.00;102064.00;5204161;28;20224;-69
2022/05/05 05:37:26;;;;;;;38.50;16.83;;;;;;;10.06;100.00;102063.75;5200931;28;20081;-69
2022/05/05 05:39:57;;;;;;;32.60;15.93;;;;;;;10.10;100.00;102067.88;5191988;28;20057;-69
2022/05/05 05:42:27;;;;;;;37.75;17.50;;;;;;;10.17;100.00;102073.53;5203906;28;20026;-69
2022/05/05 05:44:58;;;;;;;36.47;17.50;;;;;;;10.26;100.00;102067.41;5203932;28;20087;-69
2022/05/05 05:47:29;;;;;;;32.05;15.93;;;;;;;10.38;100.00;102069.00;5204507;28;20060;-69
2022/05/05 05:50:00;;;;;;;35.25;16.45;;;;;;;10.53;100.00;102069.47;5204088;28;20026;-70
2022/05/05 05:52:30;;;;;;;34.33;17.38;;;;;;;10.68;100.00;102075.31;5203798;28;20034;-69
2022/05/05 05:55:01;;;;;;;39.63;19.55;;;;;;;10.87;100.00;102070.00;5203784;28;20032;-69
2022/05/05 05:57:31;;;;;;;40.45;20.42;;;;;;;11.04;100.00;102070.28;5204433;28;20293;-69
2022/05/05 06:00:03;;;;;;;43.22;20.27;;;;;;;11.25;100.00;102075.56;5205041;28;20053;-69
2022/05/05 06:05:23;;;;;;;44.00;19.90;;;;;;;11.56;100.00;102081.63;5203671;28;20645;-69
2022/05/05 06:08:09;;;;;;;42.47;18.83;;;;;;;11.67;100.00;102082.31;5204257;28;20031;-68
2022/05/05 06:10:39;;;;;;;39.28;19.30;;;;;;;11.76;100.00;102088.69;5203879;28;20116;-69
2022/05/05 06:13:10;;;;;;;42.17;19.80;;;;;;;11.80;100.00;102089.25;5203656;28;20129;-69
2022/05/05 06:15:40;;;;;;;47.08;20.55;;;;;;;11.90;100.00;102090.13;5203005;28;20025;-68
2022/05/05 06:18:11;;;;;;;42.17;19.67;;;;;;;12.03;100.00;102089.78;5203728;28;20428;-69
2022/05/05 06:20:41;;;;;;;42.70;20.25;;;;;;;12.06;100.00;102094.91;5203730;28;20028;-69
2022/05/05 06:23:12;;;;;;;47.08;20.85;;;;;;;12.08;100.00;102095.59;5203785;28;20391;-68
2022/05/05 06:25:42;;;;;;;44.40;19.92;;;;;;;12.11;100.00;102087.22;5203460;28;20051;-69
2022/05/05 06:28:13;;;;;;;42.15;20.67;;;;;;;12.15;100.00;102096.72;5203227;28;20033;-68
2022/05/05 06:30:43;;;;;;;46.70;19.88;;;;;;;12.18;100.00;102093.72;5193089;28;20034;-68
2022/05/05 06:33:14;;;;;;;52.28;21.55;;;;;;;12.21;100.00;102098.81;5193510;28;20113;-69
2022/05/05 06:35:44;;;;;;;42.63;22.40;;;;;;;12.31;100.00;102114.94;5201092;28;20030;-69
2022/05/05 06:38:16;;;;;;;52.22;22.30;;;;;;;12.26;100.00;102107.28;5193442;28;20022;-69
2022/05/05 06:40:47;;;;;;;49.15;23.05;;;;;;;12.21;100.00;102106.88;5194595;28;20399;-69
2022/05/05 06:43:18;;;;;;;51.90;25.38;;;;;;;12.34;100.00;102110.06;5201349;28;20032;-69
2022/05/05 06:45:49;;;;;;;46.55;22.50;;;;;;;12.45;100.00;102106.38;5201146;28;20056;-69
2022/05/05 06:48:19;;;;;;;47.97;23.05;;;;;;;12.50;100.00;102113.97;5201013;28;20030;-68
2022/05/05 06:50:50;;;;;;;46.22;24.23;;;;;;;12.77;100.00;102105.94;5200370;28;20112;-69
2022/05/05 06:53:21;;;;;;;50.13;23.92;;;;;;;12.95;100.00;102114.91;5201165;28;20116;-69
2022/05/05 06:55:55;;;;;;;46.30;23.48;;;;;;;13.05;100.00;102111.28;5200709;28;20100;-69
2022/05/05 06:58:25;;;;;;;59.20;24.65;;;;;;;13.13;100.00;102112.22;5203548;28;20462;-69
2022/05/05 07:03:45;;;;;;;58.00;29.25;;;;;;;13.40;100.00;102113.19;5204781;28;20387;-69
2022/05/05 07:06:15;;;;;;;53.72;26.20;;;;;;;13.42;100.00;102119.28;5204618;28;20028;-68
2022/05/05 07:11:35;;;;;;;63.45;28.50;;;;;;;13.79;100.00;102120.97;5204655;28;20086;-69
2022/05/05 07:14:05;;;;;;;56.03;28.25;;;;;;;14.00;100.00;102116.06;5204442;28;20416;-69
2022/05/05 07:16:37;;;;;;;57.55;27.05;;;;;;;14.21;100.00;102123.81;5204800;28;20025;-69
2022/05/05 07:19:10;;;;;;;59.20;27.85;;;;;;;14.33;100.00;102127.06;5204371;28;20124;-69
2022/05/05 07:21:41;;;;;;;60.58;27.30;;;;;;;14.33;100.00;102130.63;5204487;28;20032;-69
2022/05/05 07:24:11;;;;;;;57.67;27.60;;;;;;;14.44;100.00;102129.50;5203999;28;20045;-69
2022/05/05 07:26:42;;;;;;;60.88;29.35;;;;;;;14.46;100.00;102138.28;5204323;28;20022;-70
2022/05/05 07:29:14;;;;;;;58.22;29.70;;;;;;;14.59;100.00;102141.41;5203972;28;20082;-69
2022/05/05 07:31:46;;;;;;;70.63;32.95;;;;;;;14.81;100.00;102139.16;5204593;28;20446;-70
2022/05/05 07:34:18;;;;;;;66.07;30.15;;;;;;;14.73;100.00;102151.63;5204085;28;20033;-70
2022/05/05 07:36:49;;;;;;;62.50;30.13;;;;;;;14.82;100.00;102141.69;5203887;28;20021;-69
2022/05/05 07:39:20;;;;;;;67.13;30.00;;;;;;;14.83;100.00;102140.69;5189331;28;20029;-70
2022/05/05 07:41:50;;;;;;;69.93;31.75;;;;;;;14.95;100.00;102139.38;5204651;28;20029;-69
2022/05/05 07:44:21;;;;;;;64.43;31.60;;;;;;;14.90;100.00;102148.97;5204033;28;20056;-70
2022/05/05 07:46:51;;;;;;;59.10;30.75;;;;;;;14.92;100.00;102145.13;5204133;28;20025;-70
2022/05/05 07:49:22;;;;;;;68.78;32.78;;;;;;;14.95;100.00;102146.63;5203263;28;20068;-69
2022/05/05 07:51:53;;;;;;;57.55;28.67;;;;;;;15.12;100.00;102152.97;5204555;28;20109;-70
2022/05/05 07:54:35;;;;;;;64.82;30.25;;;;;;;15.26;100.00;102152.28;5204038;28;20083;-69
2022/05/05 07:57:08;;;;;;;66.03;30.70;;;;;;;15.73;100.00;102154.44;5189161;28;20380;-69
2022/05/05 07:59:39;;;;;;;58.97;28.30;;;;;;;16.04;100.00;102157.31;5197068;28;20564;-70
2022/05/05 08:02:13;;;;;;;62.15;30.38;;;;;;;16.21;100.00;102152.72;5202936;28;20467;-70
2022/05/05 08:04:44;;;;;;;65.85;30.77;;;;;;;16.69;100.00;102161.75;5204011;28;20021;-70
2022/05/05 08:07:15;;;;;;;58.85;29.48;;;;;;;16.87;100.00;102165.09;5203896;28;20481;-70
2022/05/05 08:09:45;;;;;;;59.03;30.90;;;;;;;17.12;100.00;102162.25;5201822;28;20021;-70
2022/05/05 08:12:16;;;;;;;60.15;31.10;;;;;;;16.71;100.00;102157.84;5202945;28;20097;-70
2022/05/05 08:14:47;;;;;;;55.47;28.77;;;;;;;17.14;100.00;102166.50;5203489;28;20102;-70
2022/05/05 08:17:17;;;;;;;60.58;30.23;;;;;;;16.76;100.00;102169.00;5203503;28;20018;-70
2022/05/05 08:19:47;;;;;;;60.72;30.25;;;;;;;16.42;100.00;102165.72;5202859;28;20108;-70
2022/05/05 08:22:18;;;;;;;58.38;30.50;;;;;;;16.35;100.00;102165.56;5203177;28;20022;-70
2022/05/05 08:30:26;;;;;;;53.67;28.23;;;;;;;17.98;100.00;102174.78;5192081;28;20033;-70
2022/05/05 08:32:57;;;;;;;50.15;27.20;;;;;;;18.87;100.00;102175.72;5203065;28;20463;-70
2022/05/05 08:35:27;;;;;;;51.78;29.52;;;;;;;19.07;100.00;102184.13;5203074;28;20107;-70
2022/05/05 08:37:58;;;;;;;59.85;29.48;;;;;;;18.95;100.00;102181.06;5201131;28;20025;-70
2022/05/05 08:40:28;;;;;;;54.10;29.55;;;;;;;19.06;100.00;102187.91;5202543;28;20072;-70
2022/05/05 08:42:59;;;;;;;46.05;25.55;;;;;;;20.59;100.00;102185.66;5202920;28;20017;-70
2022/05/05 08:45:31;;;;;;;47.67;28.58;;;;;;;20.72;100.00;102182.16;5202132;28;20037;-70
2022/05/05 08:48:06;;;;;;;53.92;28.75;;;;;;;19.35;100.00;102190.56;5202936;28;20036;-70
2022/05/05 08:50:40;;;;;;;51.10;27.88;;;;;;;18.14;100.00;102185.50;5202279;28;20025;-70
2022/05/05 08:53:14;;;;;;;46.28;25.55;;;;;;;18.53;100.00;102188.00;5202587;28;20056;-71
2022/05/05 08:55:45;;;;;;;45.50;23.27;;;;;;;18.64;100.00;102192.13;5202557;28;20053;-71
2022/05/05 08:58:16;;;;;;;40.10;22.48;;;;;;;18.64;100.00;102195.69;5202070;28;20380;-70
2022/05/05 09:00:52;;;;;;;41.00;23.52;;;;;;;19.03;100.00;102193.72;5201938;28;20533;-71
2022/05/05 09:03:23;;;;;;;48.55;23.80;;;;;;;19.65;100.00;102196.78;5202458;28;20017;-71
2022/05/05 09:05:55;;;;;;;36.88;20.40;;;;;;;20.15;100.00;102191.38;5202228;28;20029;-71
2022/05/05 09:08:28;;;;;;;37.00;18.90;;;;;;;20.23;100.00;102196.69;5202232;28;20462;-71
2022/05/05 09:11:02;;;;;;;32.15;20.00;;;;;;;20.06;100.00;102195.28;5201911;28;20029;-70
2022/05/05 09:13:36;;;;;;;36.67;21.42;;;;;;;19.24;100.00;102198.38;5202209;28;20022;-71
2022/05/05 09:16:07;;;;;;;36.73;20.07;;;;;;;19.27;100.00;102197.97;5199996;28;20167;-71
2022/05/05 09:18:38;;;;;;;35.13;18.95;;;;;;;19.67;100.00;102202.88;5201311;28;20107;-70
2022/05/05 09:21:08;;;;;;;29.17;16.38;;;;;;;20.12;100.00;102199.94;5200523;28;20090;-70
2022/05/05 09:24:34;;;;;;;23.70;13.32;;;;;;;20.28;98.03;102196.06;5187878;28;20017;-71
2022/05/05 09:26:31;;;;;;;29.35;16.98;;;;;;;19.90;100.00;102210.84;5206128;28;20036;-70
2022/05/05 09:29:20;;;;;;;30.33;17.45;;;;;;;19.02;100.00;102203.75;5211987;28;20037;-71
2022/05/05 09:31:50;;;;;;;32.05;17.40;;;;;;;18.38;100.00;102198.84;5211897;28;20005;-70
2022/05/05 09:34:21;;;;;;;32.60;17.33;;;;;;;18.37;100.00;102193.56;5205877;28;20548;-71
2022/05/05 09:36:51;;;;;;;32.75;16.52;;;;;;;18.30;100.00;102200.78;5211229;28;20553;-70
2022/05/05 09:39:22;;;;;;;27.92;15.10;;;;;;;18.19;100.00;102201.25;5206828;28;20025;-70
2022/05/05 09:41:54;;;;;;;21.95;11.07;;;;;;;18.58;100.00;102206.47;5211449;28;20022;-70
2022/05/05 09:44:26;;;;;;;22.75;11.88;;;;;;;18.46;100.00;102205.22;5202075;28;20033;-71
2022/05/05 09:46:57;;;;;;;24.08;12.55;;;;;;;18.77;100.00;102211.34;5204954;28;20017;-70
2022/05/05 09:49:27;;;;;;;26.35;12.85;;;;;;;18.83;100.00;102212.50;5206417;28;20083;-70
2022/05/05 10:05:52;;;;;;;24.98;13.95;;;;;;;19.81;100.00;102219.34;5213318;28;20049;-70
2022/05/05 10:08:30;;;;;;;28.42;14.25;;;;;;;19.67;100.00;102211.03;5204641;28;20310;-70
2022/05/05 10:11:04;;;;;;;25.23;14.65;;;;;;;18.86;100.00;102217.53;5213053;28;20017;-70
2022/05/05 10:13:37;;;;;;;26.03;14.07;;;;;;;19.96;100.00;102222.84;5201476;28;20311;-71
2022/05/05 10:16:08;;;;;;;25.60;13.98;;;;;;;20.38;100.00;102219.25;5200776;28;20104;-71
2022/05/05 10:18:40;;;;;;;22.48;13.35;;;;;;;20.56;98.03;102212.47;5206062;28;20024;-70
2022/05/05 10:21:30;;;;;;;26.00;13.80;;;;;;;20.18;100.00;102205.47;5202786;28;20104;-70
2022/05/05 10:24:09;;;;;;;23.77;13.70;;;;;;;19.87;100.00;102210.41;5204634;28;20040;-71
2022/05/05 10:26:40;;;;;;;29.05;15.32;;;;;;;20.31;100.00;102212.03;5199729;28;20025;-72
2022/05/05 10:29:47;;;;;;;24.80;16.08;;;;;;;20.53;100.00;102215.59;5208757;28;20033;-71
2022/05/05 10:32:21;;;;;;;25.55;14.40;;;;;;;20.81;93.11;102210.94;5205403;28;20036;-71
2022/05/05 10:34:54;;;;;;;26.92;14.93;;;;;;;21.12;96.21;102210.47;5209331;28;20236;-71
2022/05/05 10:37:43;;;;;;;25.30;14.60;;;;;;;20.82;92.88;102209.06;5202331;28;20029;-71
2022/05/05 10:40:14;;;;;;;24.13;13.85;;;;;;;20.80;100.00;102205.72;5204287;28;20025;-71
2022/05/05 10:42:49;;;;;;;19.45;11.40;;;;;;;20.72;90.96;102214.03;5210781;28;20009;-71
2022/05/05 10:45:39;;;;;;;16.48;10.80;;;;;;;21.09;83.99;102212.78;5217428;28;20051;-71
2022/05/05 10:48:10;;;;;;;19.73;11.02;;;;;;;20.47;91.29;102216.38;5208033;28;20036;-71
2022/05/05 10:50:49;;;;;;;17.17;11.55;;;;;;;20.49;95.27;102208.88;5206219;28;20017;-71
2022/05/05 10:53:40;;;;;;;23.10;12.73;;;;;;;20.89;91.94;102209.97;5205473;28;20120;-71
2022/05/05 10:56:30;;;;;;;22.23;12.18;;;;;;;21.11;90.61;102213.41;5211881;28;20115;-71
2022/05/05 10:59:04;;;;;;;24.80;14.55;;;;;;;21.28;89.68;102213.88;5202647;28;20079;-71
2022/05/05 11:01:53;;;;;;;24.58;14.13;;;;;;;21.29;94.29;102208.25;5204892;28;20387;-71
2022/05/05 11:04:28;;;;;;;26.80;14.98;;;;;;;20.94;90.56;102202.84;5203086;28;20041;-71
2022/05/05 11:07:36;;;;;;;25.10;15.10;;;;;;;21.01;92.51;102204.75;5213003;28;20036;-71
2022/05/05 11:10:28;;;;;;;22.38;12.45;;;;;;;21.84;85.24;102203.59;5203700;28;20583;-72
2022/05/05 11:12:58;;;;;;;25.42;14.07;;;;;;;22.28;78.90;102210.34;5202720;28;20030;-71
2022/05/05 11:21:37;;;;;;;29.45;14.57;;;;;;;21.56;84.94;102205.63;5206655;28;20030;-71
2022/05/05 11:24:08;;;;;;;21.33;11.75;;;;;;;21.83;77.07;102203.78;5209785;28;20030;-71
2022/05/05 11:26:39;;;;;;;22.35;12.50;;;;;;;21.42;77.58;102210.19;5207583;28;20052;-72
2022/05/05 11:29:28;;;;;;;18.23;11.57;;;;;;;21.10;81.49;102206.28;5210862;28;20060;-71
2022/05/05 11:32:00;;;;;;;21.90;12.35;;;;;;;20.98;79.87;102216.91;5203364;28;20021;-71
2022/05/05 11:34:34;;;;;;;20.95;12.07;;;;;;;21.02;80.01;102207.28;5201619;28;20021;-71
2022/05/05 11:37:06;;;;;;;22.33;12.90;;;;;;;20.81;82.46;102210.94;5208415;28;20047;-71
2022/05/05 11:39:36;;;;;;;19.05;11.50;;;;;;;20.69;89.59;102194.31;5204685;28;20021;-71
2022/05/05 11:42:09;;;;;;;17.83;9.98;;;;;;;21.46;84.65;102198.66;5216655;28;20020;-71
2022/05/05 11:44:41;;;;;;;21.98;12.43;;;;;;;21.85;84.12;102198.97;5201617;28;20100;-71
2022/05/05 11:47:15;;;;;;;22.70;12.40;;;;;;;22.08;81.13;102198.53;5207274;28;20095;-71
2022/05/05 11:49:47;;;;;;;27.02;13.65;;;;;;;22.36;75.31;102201.09;5218490;28;20025;-71
2022/05/05 11:52:20;;;;;;;21.20;13.32;;;;;;;22.43;76.29;102200.03;5208645;28;20040;-71
2022/05/05 11:54:54;;;;;;;19.10;12.10;;;;;;;22.15;82.64;102196.69;5202072;28;20025;-71
2022/05/05 11:57:45;;;;;;;25.63;13.65;;;;;;;22.49;79.60;102196.47;5206781;28;20033;-71
2022/05/05 12:03:05;;;;;;;22.52;13.25;;;;;;;21.74;74.17;102189.50;5209765;28;20024;-71
2022/05/05 12:05:36;;;;;;;22.88;13.40;;;;;;;21.32;82.58;102196.94;5204023;28;20021;-71
2022/05/05 12:08:08;;;;;;;24.75;15.63;;;;;;;21.27;83.10;102193.09;5205669;28;20025;-71
2022/05/05 12:10:39;;;;;;;23.15;15.07;;;;;;;21.29;83.06;102189.16;5212427;28;20029;-71
2022/05/05 12:13:10;;;;;;;23.98;14.65;;;;;;;21.40;84.37;102185.00;5210079;28;20034;-71
2022/05/05 12:15:41;;;;;;;21.77;14.77;;;;;;;21.52;81.34;102183.34;5206023;28;20013;-71
2022/05/05 12:18:30;;;;;;;25.98;15.70;;;;;;;21.74;76.16;102197.69;5213545;28;20596;-71
2022/05/05 12:21:00;;;;;;;25.98;16.67;;;;;;;21.62;84.98;102197.44;5207905;28;20391;-70
2022/05/05 12:23:39;;;;;;;24.95;16.70;;;;;;;22.46;76.16;102185.94;5206571;28;20045;-71
2022/05/05 12:26:09;;;;;;;28.15;17.95;;;;;;;22.74;74.43;102190.28;5203763;28;20478;-71